Time;durP1;ratioP1;P1;durP2;ratioP2;P2;SDS_P1;SDS_P2;PMS_P1;PMS_P2;Temp;Humidity;BMP_temperature;BMP_pressure;BME280_temperature;BME280_humidity;BME280_pressure;Samples;Min_cycle;Max_cycle;Signal;HPM_P1;HPM_P2
2020/12/17 19:38:16;;;;;;;81.97;51.20;;;9.50;99.90;;;;;;5013075;28;20408;-75
2020/12/17 19:41:22;;;;;;;83.55;51.75;;;9.50;99.90;;;;;;5006557;28;20041;-74
2020/12/17 19:44:26;;;;;;;88.13;54.65;;;9.50;99.90;;;;;;5014014;28;20064;-74
2020/12/17 19:47:31;;;;;;;80.22;54.38;;;9.50;99.90;;;;;;5010198;28;20536;-74
2020/12/17 19:50:36;;;;;;;79.05;52.67;;;9.40;99.90;;;;;;5013058;28;20041;-74
2020/12/17 19:53:43;;;;;;;80.95;52.67;;;9.40;99.90;;;;;;5013884;28;20053;-74
2020/12/17 19:56:50;;;;;;;85.15;55.90;;;9.40;99.90;;;;;;5014452;28;20053;-74
2020/12/17 19:59:55;;;;;;;82.00;54.15;;;9.30;99.90;;;;;;5013744;28;20041;-74
2020/12/17 20:03:02;;;;;;;109.10;72.05;;;9.30;99.90;;;;;;5013788;28;20056;-74
2020/12/17 20:06:07;;;;;;;100.50;65.85;;;9.30;99.90;;;;;;5013051;28;20064;-74
2020/12/17 20:09:14;;;;;;;104.63;72.40;;;9.20;99.90;;;;;;5012674;28;20041;-74
2020/12/17 20:12:22;;;;;;;99.70;66.45;;;9.20;99.90;;;;;;5014401;28;20507;-74
2020/12/17 20:15:27;;;;;;;93.65;66.93;;;9.10;99.90;;;;;;5014107;28;20381;-74
2020/12/17 20:18:32;;;;;;;98.60;67.57;;;9.10;99.90;;;;;;5012689;28;20052;-74
2020/12/17 20:21:37;;;;;;;82.30;56.40;;;9.10;99.90;;;;;;5010995;28;20048;-74
2020/12/17 20:24:44;;;;;;;74.22;50.88;;;9.00;99.90;;;;;;5012565;28;20037;-74
2020/12/17 20:27:49;;;;;;;76.18;53.67;;;9.00;99.90;;;;;;5011864;28;20050;-74
2020/12/17 20:30:54;;;;;;;79.25;55.35;;;9.10;99.90;;;;;;5012316;28;20041;-74
2020/12/17 20:34:02;;;;;;;80.07;54.28;;;9.10;99.90;;;;;;5011619;28;20048;-75
2020/12/17 20:37:07;;;;;;;81.75;55.38;;;9.10;99.90;;;;;;5000318;28;20393;-74
2020/12/17 20:40:12;;;;;;;83.63;52.95;;;9.00;99.90;;;;;;5013315;28;20512;-74
2020/12/17 20:43:19;;;;;;;105.20;71.10;;;9.00;99.90;;;;;;5013579;28;20049;-74
2020/12/17 20:46:26;;;;;;;106.38;70.05;;;9.00;99.90;;;;;;5013300;28;20045;-74
2020/12/17 20:49:33;;;;;;;105.18;69.80;;;9.00;99.90;;;;;;5012266;28;20045;-74
2020/12/17 20:52:37;;;;;;;104.15;72.93;;;9.10;99.90;;;;;;5013290;28;20637;-74
2020/12/17 20:55:44;;;;;;;90.97;59.33;;;9.10;99.90;;;;;;5012819;28;20049;-74
2020/12/17 20:58:50;;;;;;;88.47;59.70;;;9.20;99.90;;;;;;5012417;28;20393;-74
2020/12/17 21:02:00;;;;;;;89.68;61.40;;;9.20;99.90;;;;;;5013188;28;20053;-74
2020/12/17 21:05:07;;;;;;;89.18;58.35;;;9.20;99.90;;;;;;5013089;28;20049;-75
2020/12/17 21:08:12;;;;;;;83.10;56.28;;;9.20;99.90;;;;;;5012576;28;20045;-74
2020/12/17 21:11:19;;;;;;;90.13;58.90;;;9.10;99.90;;;;;;5011778;28;20519;-74
2020/12/17 21:14:23;;;;;;;95.53;61.65;;;9.10;99.90;;;;;;5013121;28;20393;-74
2020/12/17 21:17:28;;;;;;;108.18;71.15;;;9.10;99.90;;;;;;5012221;28;20052;-74
2020/12/17 21:20:34;;;;;;;101.60;64.18;;;9.10;99.90;;;;;;5012115;28;20508;-74
2020/12/17 21:23:38;;;;;;;91.00;60.28;;;9.00;99.90;;;;;;5012474;28;20045;-74
2020/12/17 21:26:43;;;;;;;83.25;56.83;;;8.90;99.90;;;;;;5012578;28;20397;-74
2020/12/17 21:29:50;;;;;;;84.15;57.85;;;8.90;99.90;;;;;;5012544;28;20503;-74
2020/12/17 21:32:56;;;;;;;90.43;59.28;;;8.90;99.90;;;;;;5012278;28;20100;-75
2020/12/17 21:36:01;;;;;;;88.00;61.28;;;8.90;99.90;;;;;;5010864;28;20045;-74
2020/12/17 21:39:05;;;;;;;101.07;65.43;;;8.90;99.90;;;;;;5011713;28;20045;-75
2020/12/17 21:42:10;;;;;;;105.38;69.20;;;8.90;99.90;;;;;;5011788;28;20602;-74
2020/12/17 21:45:15;;;;;;;100.03;63.50;;;8.80;99.90;;;;;;5012412;28;20057;-75
2020/12/17 21:48:19;;;;;;;93.57;64.75;;;8.80;99.90;;;;;;5011558;28;20487;-74
2020/12/17 21:51:24;;;;;;;90.60;61.10;;;8.80;99.90;;;;;;5012520;28;20389;-75
2020/12/17 21:54:29;;;;;;;106.93;70.63;;;8.80;99.90;;;;;;5012395;28;20409;-74
2020/12/17 21:57:34;;;;;;;98.28;67.00;;;8.70;99.90;;;;;;5012014;28;20060;-74
2020/12/17 22:00:38;;;;;;;98.35;65.75;;;8.70;99.90;;;;;;5011964;28;20052;-75
2020/12/17 22:03:43;;;;;;;105.47;71.72;;;8.70;99.90;;;;;;5011504;28;20520;-74
2020/12/17 22:06:47;;;;;;;114.75;75.90;;;8.70;99.90;;;;;;5012496;28;20606;-75
2020/12/17 22:09:52;;;;;;;105.30;74.38;;;8.60;99.90;;;;;;5012325;28;20102;-74
2020/12/17 22:12:57;;;;;;;109.75;73.53;;;8.60;99.90;;;;;;5012196;28;20072;-75
2020/12/17 22:16:02;;;;;;;113.32;76.32;;;8.50;99.90;;;;;;5012522;28;20057;-75
2020/12/17 22:19:06;;;;;;;116.32;74.53;;;8.50;99.90;;;;;;5010885;28;20052;-74
2020/12/17 22:22:10;;;;;;;115.75;74.50;;;8.40;99.90;;;;;;5012000;28;20503;-75
2020/12/17 22:25:15;;;;;;;117.20;77.85;;;8.40;99.90;;;;;;5012361;28;20057;-74
2020/12/17 22:28:19;;;;;;;94.32;62.92;;;8.40;99.90;;;;;;5011758;28;20733;-74
2020/12/17 22:31:35;;;;;;;75.30;50.78;;;8.40;99.90;;;;;;5012108;28;20049;-74
2020/12/17 22:34:39;;;;;;;71.53;45.90;;;8.40;99.90;;;;;;5011675;28;20053;-74
2020/12/17 22:37:43;;;;;;;72.50;47.63;;;8.50;99.90;;;;;;5010227;28;20057;-74
2020/12/17 22:40:48;;;;;;;75.70;47.70;;;8.60;99.90;;;;;;5011818;28;20044;-74
2020/12/17 22:43:54;;;;;;;74.40;47.90;;;8.60;99.90;;;;;;5011437;28;20052;-75
2020/12/17 22:46:59;;;;;;;67.57;45.00;;;8.70;99.90;;;;;;5010545;28;20057;-75
2020/12/17 22:50:06;;;;;;;79.55;53.28;;;8.70;99.90;;;;;;5011518;28;20061;-74
2020/12/17 22:53:11;;;;;;;86.57;56.53;;;8.80;99.90;;;;;;5011863;28;20045;-74
2020/12/17 22:56:32;;;;;;;82.97;56.60;;;8.80;99.90;;;;;;5011783;28;20049;-74
2020/12/17 22:59:36;;;;;;;82.50;56.15;;;8.80;99.90;;;;;;5010946;28;20049;-75
2020/12/17 23:02:41;;;;;;;91.57;59.30;;;8.90;99.90;;;;;;5010524;28;20492;-74
2020/12/17 23:05:46;;;;;;;98.55;60.05;;;8.90;99.90;;;;;;5004061;28;20052;-74
2020/12/17 23:08:53;;;;;;;92.85;62.88;;;8.90;99.90;;;;;;4989685;28;20057;-75
2020/12/17 23:11:59;;;;;;;90.28;61.65;;;8.90;99.90;;;;;;4991261;28;20049;-74
2020/12/17 23:15:04;;;;;;;94.03;62.75;;;8.90;99.90;;;;;;4991765;28;20433;-74
2020/12/17 23:18:12;;;;;;;85.13;56.97;;;8.90;99.90;;;;;;4989572;28;20049;-74
2020/12/17 23:21:16;;;;;;;86.88;58.78;;;8.90;99.90;;;;;;4991173;28;20068;-75
2020/12/17 23:24:20;;;;;;;95.95;60.28;;;8.90;99.90;;;;;;4991380;28;20053;-74
2020/12/17 23:27:26;;;;;;;81.82;56.88;;;8.90;99.90;;;;;;5005643;28;20064;-75
2020/12/17 23:30:31;;;;;;;89.45;59.08;;;8.80;99.90;;;;;;5011101;28;20052;-74
2020/12/17 23:33:36;;;;;;;90.18;60.15;;;8.80;99.90;;;;;;5010012;28;20060;-74
2020/12/17 23:36:40;;;;;;;96.18;61.10;;;8.80;99.90;;;;;;5010862;28;20048;-74
2020/12/17 23:40:25;;;;;;;236.05;139.15;;;8.90;99.90;;;;;;5010986;28;20053;-74
2020/12/17 23:45:10;;;;;;;158.25;109.72;;;8.90;99.90;;;;;;4855094;29;20445;-74
